createdAt,value
2018-08-17T00:00:56.979Z,2.20
2018-08-17T00:03:25.894Z,2.10
2018-08-17T00:05:54.675Z,2.50
2018-08-17T00:08:23.391Z,2.20
2018-08-17T00:10:52.094Z,2.50
2018-08-17T00:13:20.817Z,2.23
2018-08-17T00:15:49.701Z,2.17
2018-08-17T00:18:18.437Z,2.00
2018-08-17T00:20:47.354Z,2.20
2018-08-17T00:23:16.234Z,2.10
2018-08-17T00:25:45.118Z,2.12
2018-08-17T00:28:13.943Z,2.00
2018-08-17T00:30:42.862Z,2.12
2018-08-17T00:33:11.629Z,1.98
2018-08-17T00:35:42.385Z,1.90
2018-08-17T00:38:11.290Z,2.30
2018-08-17T00:40:40.024Z,2.00
2018-08-17T00:43:08.661Z,2.37
2018-08-17T00:45:37.429Z,2.10
2018-08-17T00:48:06.453Z,2.00
2018-08-17T00:50:35.397Z,1.80
2018-08-17T00:53:04.098Z,2.17
2018-08-17T00:55:32.818Z,2.10
2018-08-17T00:58:01.433Z,2.12
2018-08-17T01:00:30.146Z,2.00
2018-08-17T01:02:58.838Z,2.37
2018-08-17T01:05:27.510Z,2.10
2018-08-17T01:07:56.179Z,2.10
2018-08-17T01:10:25.015Z,2.12
2018-08-17T01:12:53.707Z,2.00
2018-08-17T01:15:22.387Z,2.40
2018-08-17T01:17:51.174Z,2.20
2018-08-17T01:20:20.011Z,2.10
2018-08-17T01:22:48.688Z,2.22
2018-08-17T01:25:17.285Z,2.20
2018-08-17T01:27:45.858Z,2.30
2018-08-17T01:30:14.968Z,2.20
2018-08-17T01:32:43.944Z,2.08
2018-08-17T01:35:12.743Z,2.20
2018-08-17T01:37:41.491Z,2.10
2018-08-17T01:40:10.217Z,2.02
2018-08-17T01:42:39.068Z,2.10
2018-08-17T01:45:07.824Z,2.13
2018-08-17T01:47:36.547Z,1.90
2018-08-17T01:50:07.063Z,2.10
2018-08-17T01:52:35.635Z,2.10
2018-08-17T01:55:07.475Z,2.20
2018-08-17T01:57:36.517Z,2.47
2018-08-17T02:00:07.535Z,2.35
2018-08-17T02:02:38.159Z,2.37
2018-08-17T02:05:07.350Z,2.00
2018-08-17T02:07:36.539Z,2.22
2018-08-17T02:10:06.909Z,2.25
2018-08-17T02:12:35.556Z,2.42
2018-08-17T02:15:04.738Z,2.27
2018-08-17T02:17:33.533Z,1.90
2018-08-17T02:20:02.186Z,2.35
2018-08-17T02:22:30.866Z,2.40
2018-08-17T02:24:59.671Z,2.58
2018-08-17T02:27:28.370Z,2.50
2018-08-17T02:29:59.254Z,2.72
2018-08-17T02:32:28.080Z,2.80
2018-08-17T02:34:57.050Z,3.05
2018-08-17T02:37:26.077Z,3.20
2018-08-17T02:39:54.867Z,3.72
2018-08-17T02:42:23.699Z,2.47
2018-08-17T02:44:52.610Z,3.35
2018-08-17T02:47:21.521Z,3.08
2018-08-17T02:49:51.624Z,3.13
2018-08-17T02:52:20.330Z,3.20
2018-08-17T02:54:49.095Z,3.40
2018-08-17T02:57:18.001Z,3.33
2018-08-17T02:59:46.849Z,3.50
2018-08-17T03:02:15.497Z,3.50
2018-08-17T03:04:44.134Z,3.60
2018-08-17T03:07:12.843Z,3.75
2018-08-17T03:09:41.586Z,3.77
2018-08-17T03:12:12.438Z,3.85
2018-08-17T03:14:41.096Z,3.70
2018-08-17T03:17:09.911Z,4.05
2018-08-17T03:19:38.858Z,3.60
2018-08-17T03:22:07.782Z,3.70
2018-08-17T03:24:36.486Z,4.25
2018-08-17T03:27:05.469Z,3.52
2018-08-17T03:29:34.187Z,3.70
2018-08-17T03:32:03.086Z,3.93
2018-08-17T03:34:33.831Z,4.30
2018-08-17T03:37:02.628Z,4.00
2018-08-17T03:39:31.494Z,3.70
2018-08-17T03:42:00.310Z,4.00
2018-08-17T03:44:30.400Z,4.10
2018-08-17T03:46:59.104Z,4.20
2018-08-17T03:49:27.996Z,4.20
2018-08-17T03:51:56.765Z,3.80
2018-08-17T03:54:25.520Z,3.70
2018-08-17T03:56:54.284Z,4.03
2018-08-17T03:59:23.185Z,4.05
2018-08-17T04:01:52.049Z,5.07
2018-08-17T04:04:20.720Z,4.28
2018-08-17T04:06:49.386Z,4.20
2018-08-17T04:09:18.077Z,3.90
2018-08-17T04:11:46.761Z,4.15
2018-08-17T04:14:16.752Z,4.58
2018-08-17T04:16:45.449Z,4.35
2018-08-17T04:19:14.315Z,4.30
2018-08-17T04:21:43.397Z,5.58
2018-08-17T04:24:12.102Z,5.42
2018-08-17T04:26:40.881Z,4.85
2018-08-17T04:29:09.648Z,4.70
2018-08-17T04:31:38.616Z,4.50
2018-08-17T04:34:10.753Z,4.35
2018-08-17T04:36:39.638Z,5.00
2018-08-17T04:39:08.355Z,4.47
2018-08-17T04:41:38.130Z,4.60
2018-08-17T04:44:06.866Z,4.20
2018-08-17T04:46:35.522Z,4.33
2018-08-17T04:49:04.259Z,4.27
2018-08-17T04:53:02.806Z,4.42
2018-08-17T04:55:31.574Z,4.10
2018-08-17T04:58:00.253Z,4.45
2018-08-17T05:00:28.939Z,4.35
2018-08-17T05:02:57.609Z,4.40
2018-08-17T05:05:26.263Z,5.08
2018-08-17T05:07:57.183Z,4.90
2018-08-17T05:10:25.979Z,5.43
2018-08-17T05:12:54.621Z,7.22
2018-08-17T05:15:23.290Z,5.50
2018-08-17T05:17:51.989Z,5.45
2018-08-17T05:20:20.750Z,5.12
2018-08-17T05:22:49.666Z,4.80
2018-08-17T05:25:18.429Z,4.10
2018-08-17T05:27:47.091Z,4.85
2018-08-17T05:30:18.042Z,4.87
2018-08-17T05:32:47.989Z,5.27
2018-08-17T05:35:16.881Z,5.85
2018-08-17T05:37:45.733Z,4.95
2018-08-17T05:40:14.451Z,5.12
2018-08-17T05:42:43.115Z,4.83
2018-08-17T05:45:44.399Z,4.70
2018-08-17T05:48:13.080Z,5.05
2018-08-17T05:50:42.417Z,5.20
2018-08-17T05:53:11.086Z,5.55
2018-08-17T05:55:39.837Z,4.80
2018-08-17T05:58:08.530Z,4.90
2018-08-17T06:00:37.204Z,4.65
2018-08-17T06:03:07.307Z,5.37
2018-08-17T06:05:36.216Z,4.80
2018-08-17T06:08:07.165Z,5.15
2018-08-17T06:10:35.867Z,5.50
2018-08-17T06:13:04.761Z,5.10
2018-08-17T06:15:33.467Z,5.33
2018-08-17T06:18:05.214Z,4.65
2018-08-17T06:20:33.879Z,4.80
2018-08-17T06:23:02.616Z,4.28
2018-08-17T06:25:31.385Z,4.67
2018-08-17T06:28:00.258Z,5.03
2018-08-17T06:30:28.913Z,4.70
2018-08-17T06:32:59.517Z,4.80
2018-08-17T06:35:28.272Z,4.90
2018-08-17T06:37:56.934Z,4.72
2018-08-17T06:40:25.724Z,5.22
2018-08-17T06:42:54.412Z,5.25
2018-08-17T06:45:23.698Z,7.15
2018-08-17T06:47:52.369Z,8.70
2018-08-17T06:50:21.203Z,9.60
2018-08-17T06:52:50.060Z,9.05
2018-08-17T06:55:18.938Z,8.87
2018-08-17T06:57:47.827Z,9.45
2018-08-17T07:00:17.014Z,10.70
2018-08-17T07:02:46.787Z,10.45
2018-08-17T07:05:15.744Z,10.40
2018-08-17T07:07:44.508Z,9.70
2018-08-17T07:10:14.166Z,9.93
2018-08-17T07:12:43.333Z,10.08
2018-08-17T07:15:12.462Z,9.95
2018-08-17T07:17:41.760Z,11.63
2018-08-17T07:20:12.742Z,12.70
2018-08-17T07:22:44.054Z,14.25
2018-08-17T07:25:17.482Z,15.30
2018-08-17T07:27:50.869Z,16.20
2018-08-17T07:30:25.298Z,15.95
2018-08-17T07:33:00.964Z,16.30
2018-08-17T07:35:30.004Z,16.12
2018-08-17T07:37:58.798Z,16.00
2018-08-17T07:40:27.468Z,16.05
2018-08-17T07:42:57.244Z,15.53
2018-08-17T07:45:27.448Z,13.05
2018-08-17T07:47:56.184Z,12.60
2018-08-17T07:50:26.233Z,10.83
2018-08-17T07:52:57.694Z,10.88
2018-08-17T07:55:26.819Z,8.25
2018-08-17T07:57:55.466Z,8.80
2018-08-17T08:00:24.296Z,7.97
2018-08-17T08:02:53.243Z,9.70
2018-08-17T08:05:21.972Z,7.90
2018-08-17T08:07:50.739Z,7.43
2018-08-17T08:10:19.458Z,6.80
2018-08-17T08:12:49.933Z,6.97
2018-08-17T08:15:18.629Z,7.20
2018-08-17T08:17:47.338Z,6.17
2018-08-17T08:20:28.455Z,7.03
2018-08-17T08:23:08.615Z,6.90
2018-08-17T08:25:37.318Z,6.28
2018-08-17T08:28:06.148Z,5.70
2018-08-17T08:30:35.023Z,5.70
2018-08-17T08:33:04.033Z,5.30
2018-08-17T08:35:32.718Z,5.10
2018-08-17T08:38:01.625Z,4.53
2018-08-17T08:40:30.489Z,5.40
2018-08-17T08:42:59.219Z,3.98
2018-08-17T08:45:27.963Z,6.35
2018-08-17T08:47:56.684Z,4.20
2018-08-17T08:50:25.361Z,3.60
2018-08-17T08:52:54.113Z,5.37
2018-08-17T08:55:22.818Z,5.58
2018-08-17T08:57:51.455Z,5.83
2018-08-17T09:00:20.199Z,6.87
2018-08-17T09:02:52.051Z,6.05
2018-08-17T09:05:20.725Z,6.00
2018-08-17T09:07:49.474Z,5.30
2018-08-17T09:10:18.253Z,6.80
2018-08-17T09:12:46.938Z,5.72
2018-08-17T09:15:15.731Z,6.87
2018-08-17T09:17:44.662Z,6.00
2018-08-17T09:20:15.465Z,6.85
2018-08-17T09:22:44.462Z,5.37
2018-08-17T09:25:13.506Z,6.50
2018-08-17T09:27:42.351Z,4.85
2018-08-17T09:30:12.853Z,5.53
2018-08-17T09:32:41.864Z,5.13
2018-08-17T09:35:12.026Z,5.37
2018-08-17T09:37:40.731Z,4.95
2018-08-17T09:40:10.322Z,7.30
2018-08-17T09:42:39.053Z,6.37
2018-08-17T09:45:10.402Z,5.78
2018-08-17T09:47:46.514Z,6.03
2018-08-17T09:50:23.228Z,3.60
2018-08-17T09:52:52.124Z,4.30
2018-08-17T09:55:21.040Z,3.73
2018-08-17T09:57:49.716Z,3.60
2018-08-17T10:00:18.451Z,3.30
2018-08-17T10:02:52.339Z,3.50
2018-08-17T10:05:26.162Z,3.65
2018-08-17T10:08:00.187Z,3.60
2018-08-17T10:10:28.874Z,4.35
2018-08-17T10:12:57.634Z,3.60
2018-08-17T10:15:26.529Z,3.70
2018-08-17T10:17:55.154Z,3.20
2018-08-17T10:20:24.790Z,2.87
2018-08-17T10:22:53.530Z,3.92
2018-08-17T10:25:23.463Z,4.17
2018-08-17T10:27:53.426Z,3.30
2018-08-17T10:30:22.746Z,4.25
2018-08-17T10:32:56.745Z,4.37
2018-08-17T10:35:26.862Z,4.08
2018-08-17T10:37:56.863Z,3.58
2018-08-17T10:40:26.053Z,4.28
2018-08-17T10:42:54.902Z,3.70
2018-08-17T10:45:24.485Z,3.75
2018-08-17T10:47:53.599Z,2.83
2018-08-17T10:50:23.611Z,3.67
2018-08-17T10:52:53.454Z,3.00
2018-08-17T10:55:23.521Z,2.70
2018-08-17T10:57:52.298Z,2.87
2018-08-17T11:00:22.250Z,5.40
2018-08-17T11:02:51.151Z,1.82
2018-08-17T11:05:20.835Z,2.25
2018-08-17T11:07:49.739Z,2.87
2018-08-17T11:10:18.503Z,3.22
2018-08-17T11:12:47.798Z,4.70
2018-08-17T11:15:16.554Z,3.50
2018-08-17T11:17:45.947Z,3.20
2018-08-17T11:20:19.545Z,3.20
2018-08-17T11:22:48.232Z,2.65
2018-08-17T11:25:17.059Z,2.90
2018-08-17T11:27:45.944Z,3.33
2018-08-17T11:30:15.300Z,2.47
2018-08-17T11:32:44.056Z,3.10
2018-08-17T11:35:12.842Z,2.70
2018-08-17T11:37:41.693Z,2.25
2018-08-17T11:40:15.474Z,2.50
2018-08-17T11:42:49.099Z,2.30
2018-08-17T11:45:21.744Z,2.72
2018-08-17T11:47:50.861Z,4.20
2018-08-17T11:50:22.329Z,3.45
2018-08-17T11:52:56.328Z,2.60
2018-08-17T11:55:26.155Z,3.02
2018-08-17T11:57:55.023Z,2.55
2018-08-17T12:00:24.139Z,3.02
2018-08-17T12:02:52.961Z,2.40
2018-08-17T12:05:21.892Z,2.50
2018-08-17T12:07:50.921Z,2.95
2018-08-17T12:10:20.055Z,2.40
2018-08-17T12:12:48.346Z,2.30
2018-08-17T12:15:17.147Z,2.60
2018-08-17T12:17:45.825Z,2.85
2018-08-17T12:20:14.598Z,2.60
2018-08-17T12:22:43.409Z,2.77
2018-08-17T12:25:12.173Z,2.65
2018-08-17T12:27:46.827Z,2.15
2018-08-17T12:30:15.609Z,2.80
2018-08-17T12:32:44.326Z,4.60
2018-08-17T12:35:13.067Z,4.87
2018-08-17T12:37:42.328Z,2.80
2018-08-17T12:40:11.443Z,3.10
2018-08-17T12:42:40.153Z,3.98
2018-08-17T12:45:15.214Z,3.40
2018-08-17T12:47:44.152Z,2.40
2018-08-17T12:50:12.788Z,2.70
2018-08-17T12:52:41.550Z,2.60
2018-08-17T12:55:10.274Z,2.10
2018-08-17T12:57:40.851Z,2.30
2018-08-17T13:00:09.863Z,2.80
2018-08-17T13:02:38.567Z,2.20
2018-08-17T13:05:07.356Z,2.25
2018-08-17T13:07:36.660Z,2.52
2018-08-17T13:10:06.666Z,2.50
2018-08-17T13:12:35.411Z,2.53
2018-08-17T13:15:04.487Z,2.60
2018-08-17T13:19:02.926Z,2.10
2018-08-17T13:21:31.569Z,2.75
2018-08-17T13:24:00.334Z,3.08
2018-08-17T13:26:29.043Z,2.40
2018-08-17T13:28:57.678Z,2.70
2018-08-17T13:31:26.319Z,2.60
2018-08-17T13:33:55.058Z,2.15
2018-08-17T13:36:29.963Z,2.40
2018-08-17T13:39:02.610Z,2.72
2018-08-17T13:41:31.511Z,2.70
2018-08-17T13:44:00.226Z,2.67
2018-08-17T13:46:29.039Z,2.52
2018-08-17T13:48:57.717Z,3.65
2018-08-17T13:51:26.452Z,2.10
2018-08-17T13:53:55.292Z,2.42
2018-08-17T13:56:24.143Z,2.42
2018-08-17T13:58:52.912Z,3.25
2018-08-17T14:01:21.702Z,2.62
2018-08-17T14:03:50.391Z,2.27
2018-08-17T14:06:19.061Z,2.25
2018-08-17T14:08:47.715Z,2.35
2018-08-17T14:11:16.509Z,2.10
2018-08-17T14:13:46.008Z,2.63
2018-08-17T14:16:19.630Z,2.30
2018-08-17T14:18:58.309Z,1.90
2018-08-17T14:21:35.596Z,3.30
2018-08-17T14:24:04.886Z,2.25
2018-08-17T14:26:33.669Z,1.60
2018-08-17T14:29:02.371Z,2.08
2018-08-17T14:31:31.048Z,2.40
2018-08-17T14:33:59.728Z,2.15
2018-08-17T14:36:28.449Z,1.80
2018-08-17T14:38:57.409Z,2.20
2018-08-17T14:41:26.064Z,1.80
2018-08-17T14:43:54.764Z,1.70
2018-08-17T14:46:23.581Z,2.00
2018-08-17T14:48:52.280Z,1.90
2018-08-17T14:51:20.994Z,2.10
2018-08-17T14:53:49.856Z,1.80
2018-08-17T14:56:18.505Z,1.70
2018-08-17T14:58:47.334Z,2.72
2018-08-17T15:01:16.367Z,1.85
2018-08-17T15:03:45.423Z,2.07
2018-08-17T15:06:14.198Z,2.17
2018-08-17T15:08:45.834Z,1.45
2018-08-17T15:11:14.649Z,2.30
2018-08-17T15:13:43.363Z,3.80
2018-08-17T15:16:12.167Z,3.05
2018-08-17T15:18:40.968Z,3.00
2018-08-17T15:21:10.030Z,3.25
2018-08-17T15:23:38.767Z,1.95
2018-08-17T15:26:09.179Z,1.72
2018-08-17T15:28:38.184Z,2.08
2018-08-17T15:31:08.847Z,2.10
2018-08-17T15:33:37.556Z,2.70
2018-08-17T15:36:06.306Z,2.30
2018-08-17T15:38:35.175Z,1.60
2018-08-17T15:41:03.825Z,3.33
2018-08-17T15:43:33.564Z,3.35
2018-08-17T15:46:02.225Z,2.60
2018-08-17T15:48:38.944Z,3.10
2018-08-17T15:51:10.465Z,2.75
2018-08-17T15:53:39.886Z,2.35
2018-08-17T15:56:09.005Z,2.30
2018-08-17T15:58:37.699Z,2.12
2018-08-17T16:01:08.366Z,2.43
2018-08-17T16:03:39.239Z,4.12
2018-08-17T16:06:09.167Z,3.05
2018-08-17T16:08:37.881Z,2.77
2018-08-17T16:11:07.022Z,2.10
2018-08-17T16:13:35.822Z,2.70
2018-08-17T16:16:04.800Z,6.03
2018-08-17T16:18:33.548Z,3.45
2018-08-17T16:22:32.640Z,2.83
2018-08-17T16:25:01.534Z,2.23
2018-08-17T16:27:30.580Z,2.35
2018-08-17T16:29:59.432Z,3.60
2018-08-17T16:32:28.182Z,2.80
2018-08-17T16:34:56.982Z,4.67
2018-08-17T16:37:25.673Z,2.97
2018-08-17T16:39:55.373Z,3.30
2018-08-17T16:42:33.505Z,2.83
2018-08-17T16:45:02.300Z,3.30
2018-08-17T16:47:31.101Z,3.15
2018-08-17T16:49:59.971Z,4.25
2018-08-17T16:52:28.748Z,2.83
2018-08-17T16:55:00.718Z,3.30
2018-08-17T16:57:29.470Z,5.53
2018-08-17T16:59:58.296Z,4.00
2018-08-17T17:02:27.099Z,4.08
2018-08-17T17:04:55.859Z,6.25
2018-08-17T17:07:29.800Z,4.17
2018-08-17T17:10:01.044Z,4.22
2018-08-17T17:12:30.115Z,3.37
2018-08-17T17:15:32.938Z,4.90
2018-08-17T17:18:06.921Z,5.85
2018-08-17T17:20:43.129Z,5.40
2018-08-17T17:23:14.341Z,5.75
2018-08-17T17:25:45.637Z,6.12
2018-08-17T17:28:14.400Z,5.33
2018-08-17T17:30:47.315Z,5.65
2018-08-17T17:33:16.441Z,9.30
2018-08-17T17:35:45.327Z,6.12
2018-08-17T17:38:14.120Z,6.05
2018-08-17T17:40:43.243Z,4.42
2018-08-17T17:43:12.153Z,3.95
2018-08-17T17:45:41.306Z,5.20
2018-08-17T17:48:10.479Z,3.72
2018-08-17T17:50:41.634Z,5.00
2018-08-17T17:53:10.462Z,5.75
2018-08-17T17:55:44.582Z,10.00
2018-08-17T17:58:13.585Z,6.85
2018-08-17T18:00:51.497Z,7.90
2018-08-17T18:03:20.341Z,6.25
2018-08-17T18:05:49.018Z,5.92
2018-08-17T18:08:20.141Z,7.50
2018-08-17T18:10:49.203Z,7.90
2018-08-17T18:13:17.939Z,6.58
2018-08-17T18:15:46.765Z,6.28
2018-08-17T18:18:15.719Z,4.20
2018-08-17T18:20:44.425Z,4.28
2018-08-17T18:23:13.121Z,4.50
2018-08-17T18:25:42.224Z,7.50
2018-08-17T18:28:11.005Z,7.78
2018-08-17T18:30:40.040Z,7.13
2018-08-17T18:33:08.867Z,5.33
2018-08-17T18:35:37.749Z,4.20
2018-08-17T18:38:06.710Z,4.50
2018-08-17T18:40:35.579Z,6.17
2018-08-17T18:43:04.545Z,4.30
2018-08-17T18:45:33.407Z,5.70
2018-08-17T18:48:02.363Z,6.83
2018-08-17T18:50:33.382Z,5.80
2018-08-17T18:53:02.347Z,6.60
2018-08-17T18:55:31.500Z,6.40
2018-08-17T18:58:00.342Z,6.55
2018-08-17T19:00:29.337Z,4.58
2018-08-17T19:02:59.645Z,5.53
2018-08-17T19:05:34.654Z,4.20
2018-08-17T19:08:03.514Z,5.15
2018-08-17T19:10:32.570Z,4.00
2018-08-17T19:13:01.381Z,5.12
2018-08-17T19:15:34.878Z,4.60
2018-08-17T19:18:03.716Z,4.00
2018-08-17T19:20:32.617Z,5.53
2018-08-17T19:23:01.548Z,5.30
2018-08-17T19:25:30.935Z,5.97
2018-08-17T19:27:59.906Z,5.15
2018-08-17T19:30:33.582Z,5.57
2018-08-17T19:33:07.677Z,6.08
2018-08-17T19:35:36.571Z,4.10
2018-08-17T19:38:05.502Z,4.92
2018-08-17T19:40:34.290Z,5.15
2018-08-17T19:43:02.958Z,5.67
2018-08-17T19:45:37.620Z,4.80
2018-08-17T19:48:08.421Z,4.47
2018-08-17T19:50:37.345Z,4.40
2018-08-17T19:53:06.297Z,4.17
2018-08-17T19:55:36.333Z,4.97
2018-08-17T19:58:05.464Z,4.58
2018-08-17T20:00:34.256Z,3.60
2018-08-17T20:03:07.911Z,4.30
2018-08-17T20:05:36.968Z,3.72
2018-08-17T20:08:05.807Z,4.12
2018-08-17T20:10:41.325Z,3.98
2018-08-17T20:13:15.636Z,4.30
2018-08-17T20:15:44.718Z,4.00
2018-08-17T20:18:13.399Z,4.00
2018-08-17T20:20:42.284Z,3.33
2018-08-17T20:23:11.124Z,3.67
2018-08-17T20:25:41.771Z,3.50
2018-08-17T20:28:10.508Z,3.50
2018-08-17T20:30:41.116Z,3.83
2018-08-17T20:33:15.919Z,3.67
2018-08-17T20:35:45.563Z,3.02
2018-08-17T20:38:14.604Z,4.05
2018-08-17T20:40:43.460Z,4.10
2018-08-17T20:43:12.458Z,3.95
2018-08-17T20:45:41.306Z,3.22
2018-08-17T20:48:10.186Z,3.87
2018-08-17T20:50:39.269Z,3.70
2018-08-17T20:53:08.226Z,3.98
2018-08-17T20:55:36.931Z,3.85
2018-08-17T20:58:05.902Z,4.72
2018-08-17T21:00:34.659Z,6.30
2018-08-17T21:03:03.390Z,4.50
2018-08-17T21:05:32.136Z,5.62
2018-08-17T21:08:00.913Z,6.80
2018-08-17T21:10:29.747Z,5.08
2018-08-17T21:12:58.450Z,3.90
2018-08-17T21:15:27.377Z,5.53
2018-08-17T21:17:56.153Z,5.12
2018-08-17T21:20:24.863Z,5.20
2018-08-17T21:22:53.713Z,4.60
2018-08-17T21:25:23.308Z,7.65
2018-08-17T21:27:52.315Z,4.10
2018-08-17T21:30:20.980Z,3.85
2018-08-17T21:32:49.727Z,3.77
2018-08-17T21:35:18.490Z,3.70
2018-08-17T21:37:47.330Z,3.42
2018-08-17T21:40:21.260Z,3.67
2018-08-17T21:42:49.944Z,3.35
2018-08-17T21:45:23.681Z,3.50
2018-08-17T21:47:57.548Z,4.20
2018-08-17T21:50:26.517Z,3.60
2018-08-17T21:52:55.418Z,4.30
2018-08-17T21:55:24.177Z,4.10
2018-08-17T21:57:52.915Z,4.67
2018-08-17T22:00:36.785Z,3.30
2018-08-17T22:03:40.824Z,3.80
2018-08-17T22:06:09.541Z,4.37
2018-08-17T22:08:38.675Z,3.72
2018-08-17T22:11:07.500Z,3.75
2018-08-17T22:13:36.648Z,3.62
2018-08-17T22:16:05.568Z,3.60
2018-08-17T22:18:34.460Z,3.90
2018-08-17T22:21:03.205Z,3.98
2018-08-17T22:23:31.962Z,3.50
2018-08-17T22:26:00.974Z,3.80
2018-08-17T22:28:29.870Z,3.72
2018-08-17T22:30:58.636Z,3.40
2018-08-17T22:33:27.366Z,3.22
2018-08-17T22:35:56.162Z,3.15
2018-08-17T22:38:26.756Z,3.80
2018-08-17T22:40:55.395Z,3.60
2018-08-17T22:43:24.137Z,3.47
2018-08-17T22:45:53.634Z,3.40
2018-08-17T22:48:22.419Z,4.25
2018-08-17T22:50:51.019Z,4.28
2018-08-17T22:53:19.748Z,3.90
2018-08-17T22:55:48.614Z,4.00
2018-08-17T22:58:17.387Z,4.00
2018-08-17T23:00:46.279Z,3.70
2018-08-17T23:03:15.082Z,5.00
2018-08-17T23:05:43.967Z,4.15
2018-08-17T23:08:12.708Z,3.90
2018-08-17T23:10:41.532Z,3.87
2018-08-17T23:13:10.236Z,3.80
2018-08-17T23:15:39.082Z,3.80
2018-08-17T23:18:07.956Z,3.80
2018-08-17T23:20:37.773Z,3.70
2018-08-17T23:23:07.358Z,4.35
2018-08-17T23:25:38.196Z,3.90
2018-08-17T23:28:07.079Z,4.55
2018-08-17T23:30:35.826Z,3.85
2018-08-17T23:33:05.862Z,3.77
2018-08-17T23:35:34.651Z,4.47
2018-08-17T23:38:03.670Z,3.70
2018-08-17T23:40:32.266Z,4.53
2018-08-17T23:43:01.233Z,3.60
2018-08-17T23:45:30.031Z,4.03
2018-08-17T23:47:58.797Z,4.15
2018-08-17T23:50:27.549Z,4.30
2018-08-17T23:52:56.596Z,4.20
2018-08-17T23:55:25.368Z,4.10
2018-08-17T23:57:54.211Z,4.10
